createdAt,value
2017-11-04T00:04:07.411Z,5.6
2017-11-04T00:14:22.054Z,5.5
2017-11-04T00:24:36.733Z,5.8
2017-11-04T00:34:51.370Z,5.6
2017-11-04T00:45:05.136Z,5.7
2017-11-04T00:55:19.841Z,5.6
2017-11-04T01:05:35.457Z,5.8
2017-11-04T01:15:49.895Z,5.8
2017-11-04T01:26:04.289Z,6.3
2017-11-04T01:36:19.018Z,6
2017-11-04T01:46:33.864Z,5.8
2017-11-04T01:56:48.231Z,5.7
2017-11-04T02:07:03.400Z,5.9
2017-11-04T02:17:18.326Z,6.1
2017-11-04T02:27:33.603Z,5.7
2017-11-04T02:37:48.158Z,5.8
2017-11-04T02:48:02.161Z,6.2
2017-11-04T02:58:16.411Z,6.3
2017-11-04T03:08:31.560Z,6.4
2017-11-04T03:18:46.213Z,6.1
2017-11-04T03:29:00.476Z,5.9
2017-11-04T03:39:15.578Z,5.6
2017-11-04T03:49:30.516Z,5.5
2017-11-04T03:59:44.756Z,5.8
2017-11-04T04:09:58.974Z,5.7
2017-11-04T04:20:14.471Z,5.5
2017-11-04T04:30:28.443Z,5.7
2017-11-04T04:40:42.338Z,5.8
2017-11-04T04:50:56.294Z,5.8
2017-11-04T05:01:10.255Z,5.9
2017-11-04T05:11:24.707Z,5.7
2017-11-04T05:21:40.136Z,5.5
2017-11-04T05:31:55.004Z,5.6
2017-11-04T05:42:08.811Z,5.7
2017-11-04T05:52:22.553Z,5.6
2017-11-04T06:02:36.274Z,5.9
2017-11-04T06:12:51.525Z,6
2017-11-04T06:23:06.027Z,6.2
2017-11-04T06:33:21.419Z,6.1
2017-11-04T06:43:37.058Z,6
2017-11-04T06:53:52.403Z,5.9
2017-11-04T07:04:07.140Z,6.3
2017-11-04T07:14:21.407Z,6.5
2017-11-04T07:24:36.260Z,6.8
2017-11-04T07:34:50.676Z,7.1
2017-11-04T07:45:05.392Z,7.2
2017-11-04T07:55:20.229Z,7.6
2017-11-04T08:05:34.476Z,7.7
2017-11-04T08:15:49.949Z,7.5
2017-11-04T08:26:05.351Z,7.6
2017-11-04T08:36:20.932Z,8
2017-11-04T08:46:36.513Z,8
2017-11-04T08:56:51.391Z,8.4
2017-11-04T09:07:06.499Z,8.4
2017-11-04T09:17:21.650Z,8.8
2017-11-04T09:27:36.763Z,9.2
2017-11-04T09:37:51.827Z,10.4
2017-11-04T09:48:05.986Z,10.6
2017-11-04T09:58:20.328Z,11.5
2017-11-04T10:08:34.726Z,11.8
2017-11-04T10:18:48.768Z,12.6
2017-11-04T10:29:03.978Z,12.8
2017-11-04T10:39:18.509Z,12.7
2017-11-04T10:49:33.454Z,13.5
2017-11-04T10:59:48.293Z,13.4
2017-11-04T11:10:03.048Z,13.7
2017-11-04T11:20:17.155Z,13.9
2017-11-04T11:30:31.782Z,13.3
2017-11-04T11:40:47.105Z,13
2017-11-04T11:51:02.743Z,13.4
2017-11-04T12:01:16.560Z,12.8
2017-11-04T12:11:32.206Z,14.2
2017-11-04T12:21:47.594Z,14.5
2017-11-04T12:32:02.036Z,14.7
2017-11-04T12:42:17.313Z,14
2017-11-04T12:52:31.744Z,14.3
2017-11-04T13:02:45.946Z,14.7
2017-11-04T13:13:00.768Z,14.1
2017-11-04T13:23:16.341Z,14.3
2017-11-04T13:33:30.391Z,13.9
2017-11-04T13:43:45.149Z,14
2017-11-04T13:53:59.158Z,14.2
2017-11-04T14:04:13.799Z,14.3
2017-11-04T14:14:27.717Z,14.5
2017-11-04T14:24:41.967Z,14.4
2017-11-04T14:34:57.552Z,14.4
2017-11-04T14:45:11.343Z,14.3
2017-11-04T14:55:26.774Z,14.3
2017-11-04T15:05:42.131Z,14.4
2017-11-04T15:15:57.532Z,14.3
2017-11-04T15:26:11.343Z,14.1
2017-11-04T15:36:26.030Z,14.1
2017-11-04T15:46:41.561Z,13.9
2017-11-04T15:56:57.233Z,13.8
2017-11-04T16:07:10.967Z,14.1
2017-11-04T16:17:25.045Z,14.1
2017-11-04T16:27:40.643Z,14
2017-11-04T16:37:55.480Z,14.2
2017-11-04T16:48:10.653Z,14.2
2017-11-04T16:58:24.398Z,14.2
2017-11-04T17:08:39.440Z,14.3
2017-11-04T17:18:53.665Z,14.3
2017-11-04T17:29:09.236Z,14.3
2017-11-04T17:39:23.701Z,14.4
2017-11-04T17:49:38.419Z,14.6
2017-11-04T17:59:53.538Z,14.4
2017-11-04T18:10:07.411Z,14.3
2017-11-04T18:20:22.167Z,14.2
2017-11-04T18:30:37.285Z,14.4
2017-11-04T18:40:51.711Z,14.3
2017-11-04T18:51:05.914Z,13.9
2017-11-04T19:01:20.939Z,13.8
2017-11-04T19:11:36.442Z,13.5
2017-11-04T19:21:51.987Z,13.5
2017-11-04T19:32:07.363Z,13.5
2017-11-04T19:42:22.164Z,13.4
2017-11-04T19:52:37.827Z,13.4
2017-11-04T20:02:52.587Z,13.2
2017-11-04T20:13:07.517Z,13.4
2017-11-04T20:23:23.182Z,13.5
2017-11-04T20:33:38.637Z,13.5
2017-11-04T20:43:53.352Z,13.7
2017-11-04T20:54:08.851Z,13.6
2017-11-04T21:04:24.234Z,13.4
2017-11-04T21:14:38.600Z,13.5
2017-11-04T21:24:52.734Z,13.5
2017-11-04T21:35:07.775Z,13.7
2017-11-04T21:45:21.520Z,13.8
2017-11-04T21:55:35.738Z,13.8
2017-11-04T22:05:50.067Z,13.7
2017-11-04T22:16:04.622Z,13.8
2017-11-04T22:26:19.022Z,13.7
2017-11-04T22:36:33.698Z,13.7
2017-11-04T22:46:48.214Z,13.9
2017-11-04T22:57:03.051Z,13.9
2017-11-04T23:07:17.194Z,13.8
2017-11-04T23:17:31.780Z,13.5
2017-11-04T23:27:45.786Z,13.2
2017-11-04T23:38:01.483Z,13
2017-11-04T23:48:17.139Z,12.9
2017-11-04T23:58:31.785Z,12.7
